This is the latest recevied weather packets stored in our database for station/object N4OGP-WX. If no packets are shown the sender has not sent any weather packets the latest 10 day(s).
| Time | Temp. | Humidity | Pressure | Rain* | Wind** | Luminosity | Snow |
|---|---|---|---|---|---|---|---|
| 1778291159 | 23.89° C | 42% | 1020.4 hPa | 0 mm | - | - | - |
| 1778291099 | 20° C | 94% | 1011.4 hPa | 0 mm | - | - | - |
| 1778291009 | 20° C | 94% | 1011.4 hPa | 0 mm | - | - | - |
| 1778290949 | 20° C | 94% | 1011.3 hPa | 0 mm | - | - | - |
| 1778290889 | 23.89° C | 42% | 1020.4 hPa | 0 mm | - | - | - |
| 1778290829 | 23.89° C | 42% | 1020.4 hPa | 0 mm | - | - | - |
| 1778290739 | 20° C | 94% | 1011.3 hPa | 0 mm | - | - | - |
| 1778290649 | 20° C | 94% | 1011.3 hPa | 0 mm | - | - | - |
| 1778290559 | 20° C | 95% | 1011.3 hPa | 0 mm | - | - | - |
| 1778290469 | 20° C | 95% | 1011.4 hPa | 0 mm | - | - | - |
| 1778290379 | 20° C | 95% | 1011.4 hPa | 0 mm | - | - | - |
| 1778290319 | 20° C | 95% | 1011.4 hPa | 0 mm | - | - | - |
| 1778290259 | 23.89° C | 42% | 1020.4 hPa | 0 mm | - | - | - |
| 1778290199 | 20° C | 95% | 1011.2 hPa | 0 mm | - | - | - |
| 1778290109 | 20° C | 95% | 1011.2 hPa | 0 mm | - | - | - |
| 1778290019 | 23.89° C | 42% | 1020.4 hPa | 0 mm | - | - | - |
| 1778289929 | 23.89° C | 42% | 1020.4 hPa | 0 mm | - | - | - |
| 1778289869 | 23.89° C | 42% | 1020.4 hPa | 0 mm | - | - | - |
| 1778289779 | 20° C | 95% | 1011 hPa | 0 mm | - | - | - |
| 1778289689 | 20° C | 95% | 1011 hPa | 0 mm | - | - | - |
| 1778289599 | 20° C | 95% | 1011.1 hPa | 0 mm | - | - | - |
| 1778289539 | 20° C | 95% | 1011.1 hPa | 0 mm | - | - | - |
| 1778289479 | 20° C | 95% | 1011.2 hPa | 0 mm | - | - | - |
| 1778289389 | 20° C | 95% | 1011.2 hPa | 0 mm | - | - | - |
| 1778289329 | 23.89° C | 42% | 1020.4 hPa | 0 mm | - | - | - |
* Rain latest hour (hover to see other rain measurements)
** Current wind speed in m/s (hover to see current wind gust speed)